Time;durP1;ratioP1;P1;durP2;ratioP2;P2;SDS_P1;SDS_P2;PMS_P1;PMS_P2;Temp;Humidity;BMP_temperature;BMP_pressure;BME280_temperature;BME280_humidity;BME280_pressure;Samples;Min_cycle;Max_cycle;Signal;HPM_P1;HPM_P2
2022/03/23 00:00:47;;;;;;;73.03;46.40;;;;;;;;;;5104619;28;20052;-61
2022/03/23 00:03:15;;;;;;;73.22;46.88;;;;;;;;;;5093161;28;20035;-61
2022/03/23 00:05:41;;;;;;;73.20;46.67;;;;;;;;;;5126244;28;20051;-61
2022/03/23 00:08:10;;;;;;;66.90;44.47;;;;;;;;;;5125653;28;20435;-60
2022/03/23 00:10:36;;;;;;;66.10;44.90;;;;;;;;;;5125807;28;20071;-60
2022/03/23 00:13:04;;;;;;;67.45;45.10;;;;;;;;;;5105338;28;20095;-60
2022/03/23 00:15:30;;;;;;;69.40;46.53;;;;;;;;;;5105683;28;20044;-61
2022/03/23 00:17:57;;;;;;;68.97;46.35;;;;;;;;;;5105421;28;20036;-61
2022/03/23 00:20:24;;;;;;;82.95;48.60;;;;;;;;;;5105371;28;20041;-60
2022/03/23 00:22:51;;;;;;;80.65;50.55;;;;;;;;;;5096987;28;20407;-61
2022/03/23 00:25:17;;;;;;;74.82;47.42;;;;;;;;;;5125575;28;20453;-60
2022/03/23 00:27:43;;;;;;;70.53;47.42;;;;;;;;;;5123903;28;20040;-61
2022/03/23 00:30:10;;;;;;;75.35;47.33;;;;;;;;;;5126015;28;20043;-60
2022/03/23 00:32:36;;;;;;;76.63;50.17;;;;;;;;;;5107973;28;20040;-61
2022/03/23 00:35:03;;;;;;;75.97;50.75;;;;;;;;;;5111893;28;20039;-61
2022/03/23 00:37:29;;;;;;;79.25;52.00;;;;;;;;;;5125094;28;20093;-60
2022/03/23 00:39:55;;;;;;;75.85;50.58;;;;;;;;;;5125287;28;20058;-61
2022/03/23 00:42:21;;;;;;;74.88;48.15;;;;;;;;;;5108579;28;20044;-60
2022/03/23 00:44:47;;;;;;;72.97;48.50;;;;;;;;;;5105575;28;20448;-61
2022/03/23 00:47:14;;;;;;;80.10;51.60;;;;;;;;;;5104889;28;20050;-61
2022/03/23 00:49:40;;;;;;;71.15;47.45;;;;;;;;;;5105028;28;20036;-61
2022/03/23 00:52:06;;;;;;;78.50;50.38;;;;;;;;;;5090985;28;20056;-60
2022/03/23 00:54:34;;;;;;;77.97;47.92;;;;;;;;;;5100237;28;20051;-61
2022/03/23 00:57:01;;;;;;;70.78;46.40;;;;;;;;;;5102721;28;20142;-61
2022/03/23 00:59:27;;;;;;;77.80;48.42;;;;;;;;;;5104790;28;20135;-61
2022/03/23 01:01:54;;;;;;;68.15;46.83;;;;;;;;;;5103864;28;20040;-61
2022/03/23 01:04:20;;;;;;;71.38;47.70;;;;;;;;;;5104651;28;20075;-61
2022/03/23 01:06:47;;;;;;;73.47;47.30;;;;;;;;;;5104166;28;20047;-60
2022/03/23 01:09:13;;;;;;;71.18;46.03;;;;;;;;;;5104456;28;20048;-61
2022/03/23 01:11:40;;;;;;;66.15;42.83;;;;;;;;;;5095317;28;20127;-60
2022/03/23 01:14:07;;;;;;;72.40;44.90;;;;;;;;;;5084712;28;20059;-60
2022/03/23 01:16:34;;;;;;;73.10;44.53;;;;;;;;;;5084213;28;20050;-60
2022/03/23 01:19:00;;;;;;;62.05;42.05;;;;;;;;;;5097574;28;20099;-60
2022/03/23 01:21:28;;;;;;;75.32;41.28;;;;;;;;;;5115980;28;20108;-61
2022/03/23 01:23:54;;;;;;;;;;;;;;;;;;5104927;28;20127;-60
2022/03/23 01:26:20;;;;;;;65.38;41.65;;;;;;;;;;5098403;28;19924;-60
2022/03/23 01:28:46;;;;;;;55.67;37.63;;;;;;;;;;5088081;28;20579;-60
2022/03/23 01:31:14;;;;;;;62.80;40.05;;;;;;;;;;5104230;28;20087;-60
2022/03/23 01:33:40;;;;;;;52.60;34.42;;;;;;;;;;5104268;28;20644;-60
2022/03/23 01:36:25;;;;;;;59.20;38.35;;;;;;;;;;5103598;28;20154;-60
2022/03/23 01:38:51;;;;;;;59.35;38.00;;;;;;;;;;5102786;28;20043;-60
2022/03/23 01:41:17;;;;;;;58.08;37.47;;;;;;;;;;5103306;28;20036;-61
2022/03/23 01:43:43;;;;;;;60.53;37.75;;;;;;;;;;5102943;28;20060;-60
2022/03/23 01:46:09;;;;;;;73.03;46.92;;;;;;;;;;5104015;28;20471;-60
2022/03/23 01:48:36;;;;;;;57.10;38.28;;;;;;;;;;5105739;28;20049;-60
2022/03/23 01:51:02;;;;;;;65.32;40.40;;;;;;;;;;5102622;28;20056;-60
2022/03/23 01:53:28;;;;;;;61.65;38.58;;;;;;;;;;5103757;28;20439;-60
2022/03/23 01:55:54;;;;;;;58.97;38.35;;;;;;;;;;5103728;28;20032;-60
2022/03/23 01:58:21;;;;;;;72.78;43.53;;;;;;;;;;5104025;28;20066;-60
2022/03/23 02:00:47;;;;;;;87.03;47.65;;;;;;;;;;5089819;28;20131;-60
2022/03/23 02:03:14;;;;;;;73.78;48.60;;;;;;;;;;5084329;28;20055;-60
2022/03/23 02:05:40;;;;;;;76.28;49.08;;;;;;;;;;5083691;28;20126;-60
2022/03/23 02:08:06;;;;;;;71.35;44.55;;;;;;;;;;5084545;28;20337;-60
2022/03/23 02:10:32;;;;;;;70.63;43.97;;;;;;;;;;5098190;28;20069;-60
2022/03/23 02:12:58;;;;;;;70.32;44.67;;;;;;;;;;5087923;28;20408;-60
2022/03/23 02:15:26;;;;;;;72.00;46.65;;;;;;;;;;5087561;28;20037;-60
2022/03/23 02:17:54;;;;;;;68.30;42.10;;;;;;;;;;5089690;28;20098;-60
2022/03/23 02:20:21;;;;;;;78.40;48.30;;;;;;;;;;5111953;28;20040;-60
2022/03/23 02:22:47;;;;;;;96.03;53.22;;;;;;;;;;5107222;28;20044;-61
2022/03/23 02:25:13;;;;;;;86.75;53.75;;;;;;;;;;5107530;28;20584;-61
2022/03/23 02:27:40;;;;;;;84.80;51.15;;;;;;;;;;5107161;28;20048;-60
2022/03/23 02:30:08;;;;;;;84.13;49.83;;;;;;;;;;5087347;28;20036;-60
2022/03/23 02:32:34;;;;;;;80.25;51.58;;;;;;;;;;5087851;28;20256;-60
2022/03/23 02:35:00;;;;;;;74.80;44.67;;;;;;;;;;5123955;28;20039;-60
2022/03/23 02:37:27;;;;;;;71.47;45.45;;;;;;;;;;5127355;28;20052;-60
2022/03/23 02:39:53;;;;;;;68.47;44.30;;;;;;;;;;5107919;28;20105;-60
2022/03/23 02:42:19;;;;;;;82.15;52.75;;;;;;;;;;5107348;28;20051;-60
2022/03/23 02:44:45;;;;;;;78.25;48.90;;;;;;;;;;5107451;28;20048;-60
2022/03/23 02:47:13;;;;;;;82.93;51.45;;;;;;;;;;5107640;28;20087;-60
2022/03/23 02:49:39;;;;;;;82.97;52.22;;;;;;;;;;5115695;28;20047;-60
2022/03/23 02:52:06;;;;;;;89.50;50.90;;;;;;;;;;5125753;28;20525;-60
2022/03/23 03:03:09;;;;;;;79.15;51.42;;;;;;;;;;5107026;28;20112;-60
2022/03/23 03:05:35;;;;;;;86.47;48.78;;;;;;;;;;5107020;28;20044;-60
2022/03/23 03:10:46;;;;;;;86.78;51.33;;;;;;;;;;5094181;28;20495;-59
2022/03/23 03:13:12;;;;;;;77.38;48.75;;;;;;;;;;5107160;28;20066;-60
2022/03/23 03:15:38;;;;;;;80.30;51.58;;;;;;;;;;5106426;28;20043;-60
2022/03/23 03:18:05;;;;;;;73.60;47.35;;;;;;;;;;5106581;28;20095;-60
2022/03/23 03:20:31;;;;;;;72.32;48.13;;;;;;;;;;5114434;28;20500;-59
2022/03/23 03:22:58;;;;;;;74.88;46.03;;;;;;;;;;5085927;28;20127;-60
2022/03/23 03:25:24;;;;;;;65.93;42.63;;;;;;;;;;5086181;28;20594;-60
2022/03/23 03:27:50;;;;;;;68.53;45.22;;;;;;;;;;5086664;28;20096;-61
2022/03/23 03:30:17;;;;;;;71.27;46.73;;;;;;;;;;5088766;28;20041;-60
2022/03/23 03:32:44;;;;;;;89.63;55.83;;;;;;;;;;5107468;28;20103;-60
2022/03/23 03:35:11;;;;;;;93.50;54.50;;;;;;;;;;5106436;28;20036;-60
2022/03/23 03:37:37;;;;;;;91.90;55.58;;;;;;;;;;5106098;28;20044;-61
2022/03/23 03:40:04;;;;;;;85.93;52.72;;;;;;;;;;5105347;28;20066;-61
2022/03/23 03:42:31;;;;;;;87.25;53.03;;;;;;;;;;5088872;28;20067;-61
2022/03/23 03:44:57;;;;;;;88.90;54.10;;;;;;;;;;5086399;28;20157;-61
2022/03/23 03:47:24;;;;;;;79.35;50.75;;;;;;;;;;5096133;28;20048;-60
2022/03/23 03:49:51;;;;;;;86.47;53.40;;;;;;;;;;5105253;28;20051;-60
2022/03/23 03:52:18;;;;;;;84.85;50.22;;;;;;;;;;5105192;28;20055;-60
2022/03/23 03:54:44;;;;;;;73.70;46.22;;;;;;;;;;5105650;28;20043;-60
2022/03/23 03:57:10;;;;;;;76.85;49.50;;;;;;;;;;5105873;28;20048;-60
2022/03/23 03:59:37;;;;;;;77.40;48.22;;;;;;;;;;5106331;28;20098;-61
2022/03/23 04:02:04;;;;;;;82.57;49.47;;;;;;;;;;5106002;28;20051;-60
2022/03/23 04:04:31;;;;;;;80.30;50.95;;;;;;;;;;5126433;28;20491;-61
2022/03/23 04:06:57;;;;;;;81.50;50.10;;;;;;;;;;5114275;28;20044;-60
2022/03/23 04:09:23;;;;;;;83.22;51.85;;;;;;;;;;5105406;28;20043;-61
2022/03/23 04:11:49;;;;;;;87.45;54.10;;;;;;;;;;5088188;28;20492;-61
2022/03/23 04:14:16;;;;;;;88.22;53.95;;;;;;;;;;5085739;28;20040;-59
2022/03/23 04:16:43;;;;;;;77.03;47.57;;;;;;;;;;5085260;28;20055;-59
2022/03/23 04:19:09;;;;;;;81.82;49.60;;;;;;;;;;5095267;28;20294;-59
2022/03/23 04:21:35;;;;;;;80.70;51.03;;;;;;;;;;5089649;28;20048;-59
2022/03/23 04:24:01;;;;;;;86.93;51.15;;;;;;;;;;5085432;28;20087;-60
2022/03/23 04:26:28;;;;;;;83.82;51.42;;;;;;;;;;5084591;28;20044;-60
2022/03/23 04:28:54;;;;;;;86.50;51.60;;;;;;;;;;5085616;28;20045;-60
2022/03/23 04:31:20;;;;;;;92.10;52.75;;;;;;;;;;5098906;28;20529;-59
2022/03/23 04:33:47;;;;;;;93.28;55.00;;;;;;;;;;5125685;28;20040;-60
2022/03/23 04:36:13;;;;;;;89.93;54.53;;;;;;;;;;5125053;28;20048;-59
2022/03/23 04:38:40;;;;;;;94.05;53.78;;;;;;;;;;5125632;28;20051;-59
2022/03/23 04:41:06;;;;;;;94.63;54.25;;;;;;;;;;5111477;28;20249;-60
2022/03/23 04:43:34;;;;;;;77.95;49.78;;;;;;;;;;5105205;28;20044;-59
2022/03/23 04:46:00;;;;;;;83.90;52.47;;;;;;;;;;5113271;28;20048;-59
2022/03/23 04:48:26;;;;;;;84.80;52.67;;;;;;;;;;5125174;28;20107;-59
2022/03/23 04:50:53;;;;;;;85.28;52.22;;;;;;;;;;5113738;28;20047;-59
2022/03/23 04:53:19;;;;;;;79.68;48.00;;;;;;;;;;5092383;28;20040;-59
2022/03/23 04:55:46;;;;;;;89.90;52.80;;;;;;;;;;5087790;28;20048;-60
2022/03/23 04:58:12;;;;;;;95.50;53.97;;;;;;;;;;5105086;28;20458;-60
2022/03/23 05:00:38;;;;;;;89.32;51.72;;;;;;;;;;5104602;28;20056;-59
2022/03/23 05:03:04;;;;;;;93.70;52.60;;;;;;;;;;5112013;28;20067;-60
2022/03/23 05:05:30;;;;;;;86.47;51.47;;;;;;;;;;5104742;28;20050;-60
2022/03/23 05:07:56;;;;;;;94.57;55.83;;;;;;;;;;5103889;28;20112;-60
2022/03/23 05:10:22;;;;;;;85.95;51.15;;;;;;;;;;5104379;28;20040;-59
2022/03/23 05:12:49;;;;;;;87.15;52.50;;;;;;;;;;5097953;28;20041;-59
2022/03/23 05:15:16;;;;;;;85.07;53.47;;;;;;;;;;5084828;28;20093;-59
2022/03/23 05:17:44;;;;;;;85.63;51.15;;;;;;;;;;5098640;28;20066;-59
2022/03/23 05:20:11;;;;;;;83.68;52.38;;;;;;;;;;5093417;28;20504;-59
2022/03/23 05:22:37;;;;;;;95.40;55.40;;;;;;;;;;5098130;28;20073;-59
2022/03/23 05:25:06;;;;;;;89.90;53.75;;;;;;;;;;5096024;28;20047;-59
2022/03/23 05:27:33;;;;;;;97.68;56.55;;;;;;;;;;5103270;28;20036;-59
2022/03/23 05:29:59;;;;;;;110.63;63.33;;;;;;;;;;5105444;28;20047;-59
2022/03/23 05:32:25;;;;;;;108.75;62.83;;;;;;;;;;5089295;28;20112;-59
2022/03/23 05:34:52;;;;;;;117.70;64.55;;;;;;;;;;5083821;28;20053;-61
2022/03/23 05:37:19;;;;;;;119.95;66.00;;;;;;;;;;5088714;28;20117;-59
2022/03/23 05:39:46;;;;;;;109.70;60.67;;;;;;;;;;5103102;28;20036;-60
2022/03/23 05:42:13;;;;;;;119.25;65.38;;;;;;;;;;5096392;28;20094;-61
2022/03/23 05:44:39;;;;;;;111.35;64.63;;;;;;;;;;5104663;28;20062;-60
2022/03/23 05:47:05;;;;;;;109.75;64.20;;;;;;;;;;5100452;28;20044;-60
2022/03/23 05:49:31;;;;;;;115.43;65.25;;;;;;;;;;5100637;28;20044;-60
2022/03/23 05:51:57;;;;;;;120.13;66.88;;;;;;;;;;5093349;28;20062;-60
2022/03/23 05:54:24;;;;;;;103.03;61.15;;;;;;;;;;5083868;28;20076;-60
2022/03/23 05:56:50;;;;;;;115.28;66.40;;;;;;;;;;5102186;28;20492;-60
2022/03/23 05:59:17;;;;;;;118.80;65.70;;;;;;;;;;5100370;28;20064;-60
2022/03/23 06:01:43;;;;;;;111.07;63.95;;;;;;;;;;5102317;28;20052;-60
2022/03/23 06:04:09;;;;;;;128.90;68.32;;;;;;;;;;5104002;28;20051;-60
2022/03/23 06:06:35;;;;;;;115.57;67.75;;;;;;;;;;5103396;28;20484;-60
2022/03/23 06:09:02;;;;;;;116.28;65.75;;;;;;;;;;5104158;28;20072;-60
2022/03/23 06:11:28;;;;;;;119.20;67.57;;;;;;;;;;5099063;28;20037;-60
2022/03/23 06:13:54;;;;;;;115.95;66.10;;;;;;;;;;5096366;28;20131;-60
2022/03/23 06:16:20;;;;;;;106.45;64.38;;;;;;;;;;5104084;28;20079;-60
2022/03/23 06:18:49;;;;;;;97.38;57.97;;;;;;;;;;5103849;28;20104;-60
2022/03/23 06:21:15;;;;;;;107.95;62.35;;;;;;;;;;5102333;28;20040;-60
2022/03/23 06:23:42;;;;;;;104.05;62.28;;;;;;;;;;5103970;28;20040;-59
2022/03/23 06:26:08;;;;;;;100.18;61.50;;;;;;;;;;5103231;28;20139;-60
2022/03/23 06:28:34;;;;;;;98.68;62.05;;;;;;;;;;5103584;28;20535;-59
2022/03/23 06:31:00;;;;;;;98.22;58.92;;;;;;;;;;5103430;28;20045;-59
2022/03/23 06:33:26;;;;;;;97.10;59.05;;;;;;;;;;5102670;28;20087;-60
2022/03/23 06:35:53;;;;;;;103.13;58.95;;;;;;;;;;5102897;28;20177;-60
2022/03/23 06:38:19;;;;;;;101.88;60.50;;;;;;;;;;5103609;28;20044;-60
2022/03/23 06:40:45;;;;;;;95.72;58.00;;;;;;;;;;5101686;28;20036;-60
2022/03/23 06:43:12;;;;;;;93.35;59.58;;;;;;;;;;5109070;28;20078;-59
2022/03/23 06:45:40;;;;;;;92.13;58.90;;;;;;;;;;5121845;28;20052;-59
2022/03/23 06:48:06;;;;;;;96.07;59.05;;;;;;;;;;5090970;28;20049;-60
2022/03/23 06:50:32;;;;;;;95.07;57.90;;;;;;;;;;5092370;28;20046;-60
2022/03/23 06:52:59;;;;;;;96.30;58.25;;;;;;;;;;5105595;28;20048;-60
2022/03/23 06:55:25;;;;;;;96.07;58.70;;;;;;;;;;5104969;28;20048;-60
2022/03/23 06:57:51;;;;;;;88.20;54.88;;;;;;;;;;5094674;28;20083;-60
2022/03/23 07:00:17;;;;;;;89.63;55.33;;;;;;;;;;5106987;28;20075;-60
2022/03/23 07:02:44;;;;;;;90.93;55.65;;;;;;;;;;5107284;28;20040;-60
2022/03/23 07:05:11;;;;;;;82.35;51.70;;;;;;;;;;5106613;28;20101;-60
2022/03/23 07:07:37;;;;;;;77.75;52.20;;;;;;;;;;5110897;28;20044;-60
2022/03/23 07:10:04;;;;;;;78.00;51.95;;;;;;;;;;5105136;28;20119;-59
2022/03/23 07:12:31;;;;;;;74.47;50.13;;;;;;;;;;5113391;28;20055;-60
2022/03/23 07:14:57;;;;;;;82.22;50.25;;;;;;;;;;5110762;28;20132;-60
2022/03/23 07:17:24;;;;;;;74.20;48.65;;;;;;;;;;5118767;28;21385;-59
2022/03/23 07:19:50;;;;;;;76.70;49.00;;;;;;;;;;5116654;28;20044;-60
2022/03/23 07:22:16;;;;;;;81.88;48.10;;;;;;;;;;5100905;28;20100;-60
2022/03/23 07:24:44;;;;;;;75.28;48.97;;;;;;;;;;5106058;28;20048;-60
2022/03/23 07:27:11;;;;;;;;;;;;;;;;;;5112534;28;20075;-60
2022/03/23 07:29:37;;;;;;;72.25;46.25;;;;;;;;;;5121245;28;19920;-62
2022/03/23 07:32:03;;;;;;;71.65;44.05;;;;;;;;;;5111277;28;20051;-62
2022/03/23 07:34:30;;;;;;;70.15;43.30;;;;;;;;;;5123664;28;20114;-62
2022/03/23 07:36:56;;;;;;;65.25;42.53;;;;;;;;;;5126490;28;20103;-61
2022/03/23 07:39:25;;;;;;;59.38;40.70;;;;;;;;;;5126493;28;20304;-61
2022/03/23 07:41:53;;;;;;;65.85;41.53;;;;;;;;;;5108757;28;20103;-62
2022/03/23 07:44:21;;;;;;;60.45;39.20;;;;;;;;;;5106098;28;20051;-62
2022/03/23 07:46:47;;;;;;;54.05;35.88;;;;;;;;;;5106255;28;20048;-62
2022/03/23 07:49:14;;;;;;;58.33;38.28;;;;;;;;;;5106698;28;20047;-61
2022/03/23 07:51:41;;;;;;;59.13;37.42;;;;;;;;;;5091159;28;20075;-62
2022/03/23 07:54:08;;;;;;;56.78;37.78;;;;;;;;;;5085627;28;20052;-62
2022/03/23 07:56:34;;;;;;;61.17;36.88;;;;;;;;;;5085401;28;20050;-61
2022/03/23 07:59:01;;;;;;;54.55;35.22;;;;;;;;;;5091486;28;20044;-61
2022/03/23 08:01:27;;;;;;;55.42;36.20;;;;;;;;;;5105747;28;20178;-62
2022/03/23 08:03:53;;;;;;;51.60;33.22;;;;;;;;;;5111876;28;20048;-61
2022/03/23 08:06:19;;;;;;;49.33;33.30;;;;;;;;;;5125593;27;20142;-61
2022/03/23 08:08:45;;;;;;;54.10;32.00;;;;;;;;;;5121272;28;20067;-62
2022/03/23 08:11:11;;;;;;;47.42;29.55;;;;;;;;;;5113832;28;20101;-62
2022/03/23 08:13:37;;;;;;;50.38;28.75;;;;;;;;;;5126153;28;20116;-62
2022/03/23 08:16:05;;;;;;;42.88;28.17;;;;;;;;;;5108631;28;20052;-61
2022/03/23 08:18:32;;;;;;;;;;;;;;;;;;5104481;28;20070;-62
2022/03/23 08:20:59;;;;;;;44.20;26.75;;;;;;;;;;5103476;28;19920;-62
2022/03/23 08:23:26;;;;;;;38.05;27.20;;;;;;;;;;5104990;28;20584;-62
2022/03/23 08:25:52;;;;;;;40.10;27.80;;;;;;;;;;5103886;28;20039;-62
2022/03/23 08:28:18;;;;;;;46.00;27.80;;;;;;;;;;5087935;28;20044;-62
2022/03/23 08:30:45;;;;;;;37.33;27.15;;;;;;;;;;5084921;28;20082;-62
2022/03/23 08:33:11;;;;;;;46.53;28.30;;;;;;;;;;5084841;28;20082;-62
2022/03/23 08:35:38;;;;;;;38.33;26.80;;;;;;;;;;5086002;28;20039;-62
2022/03/23 08:38:05;;;;;;;39.75;27.73;;;;;;;;;;5084270;28;20047;-61
2022/03/23 08:40:31;;;;;;;34.05;25.38;;;;;;;;;;5090144;28;20036;-61
2022/03/23 08:42:58;;;;;;;37.67;25.33;;;;;;;;;;5125354;28;20063;-61
2022/03/23 08:45:24;;;;;;;42.45;28.30;;;;;;;;;;5107101;27;20041;-62
2022/03/23 08:47:50;;;;;;;36.10;26.02;;;;;;;;;;5085711;28;20041;-62
2022/03/23 08:50:17;;;;;;;37.83;25.77;;;;;;;;;;5085309;28;20048;-62
2022/03/23 08:52:43;;;;;;;35.65;24.67;;;;;;;;;;5096203;28;20044;-61
2022/03/23 08:55:10;;;;;;;33.63;23.90;;;;;;;;;;5104708;28;20048;-62
2022/03/23 08:57:39;;;;;;;38.28;24.25;;;;;;;;;;5103640;28;20048;-61
2022/03/23 09:00:06;;;;;;;39.70;23.10;;;;;;;;;;5104466;28;20052;-63
2022/03/23 09:02:32;;;;;;;39.50;22.60;;;;;;;;;;5104722;28;20055;-62
2022/03/23 09:04:59;;;;;;;32.10;22.08;;;;;;;;;;5105044;28;20104;-61
2022/03/23 09:07:25;;;;;;;31.90;23.38;;;;;;;;;;5094774;28;20142;-61
2022/03/23 09:09:51;;;;;;;34.67;23.55;;;;;;;;;;5084271;28;20083;-61
2022/03/23 09:12:17;;;;;;;32.75;22.17;;;;;;;;;;5084263;28;20163;-62
2022/03/23 09:14:43;;;;;;;31.85;22.90;;;;;;;;;;5084603;28;20041;-61
2022/03/23 09:17:09;;;;;;;30.35;22.13;;;;;;;;;;5090495;28;20040;-62
2022/03/23 09:19:36;;;;;;;34.42;23.02;;;;;;;;;;5121894;28;20046;-62
2022/03/23 09:22:02;;;;;;;31.83;21.52;;;;;;;;;;5124417;28;20058;-61
2022/03/23 09:24:28;;;;;;;31.77;20.80;;;;;;;;;;5124768;28;20103;-62
2022/03/23 09:26:55;;;;;;;31.45;22.58;;;;;;;;;;5111860;28;20353;-61
2022/03/23 09:29:21;;;;;;;29.93;21.97;;;;;;;;;;5084317;28;20048;-61
2022/03/23 09:31:48;;;;;;;31.25;21.60;;;;;;;;;;5083827;28;20409;-61
2022/03/23 09:34:14;;;;;;;28.13;20.73;;;;;;;;;;5084420;28;20055;-62
2022/03/23 09:39:25;;;;;;;33.45;20.40;;;;;;;;;;5100235;28;20091;-61
2022/03/23 09:41:52;;;;;;;24.30;19.33;;;;;;;;;;5103558;28;20127;-62
2022/03/23 09:44:18;;;;;;;29.55;19.10;;;;;;;;;;5104280;28;20115;-61
2022/03/23 09:46:44;;;;;;;28.20;19.65;;;;;;;;;;5103268;28;20093;-62
2022/03/23 09:49:10;;;;;;;26.60;19.23;;;;;;;;;;5100771;28;20119;-61
2022/03/23 09:51:38;;;;;;;23.80;18.00;;;;;;;;;;5089176;28;20059;-63
2022/03/23 09:54:05;;;;;;;24.23;18.48;;;;;;;;;;5096135;28;20070;-62
2022/03/23 09:56:31;;;;;;;26.05;17.40;;;;;;;;;;5103651;28;20052;-61
2022/03/23 09:58:58;;;;;;;25.20;16.98;;;;;;;;;;5087533;28;20080;-61
2022/03/23 10:01:31;;;;;;;24.17;17.42;;;;;;;;;;5083878;28;20288;-62
2022/03/23 10:04:16;;;;;;;24.50;18.08;;;;;;;;;;5083942;28;20048;-62
2022/03/23 10:06:54;;;;;;;32.05;18.15;;;;;;;;;;5083662;28;20173;-62
2022/03/23 10:09:26;;;;;;;28.00;17.17;;;;;;;;;;5083918;28;20488;-62
2022/03/23 10:12:11;;;;;;;21.77;17.25;;;;;;;;;;5104902;28;20055;-62
2022/03/23 10:15:03;;;;;;;23.55;18.70;;;;;;;;;;5104271;28;20044;-63
2022/03/23 10:17:48;;;;;;;26.98;18.83;;;;;;;;;;5103258;28;20052;-66
2022/03/23 10:20:14;;;;;;;25.83;18.77;;;;;;;;;;5104271;28;20044;-66
2022/03/23 10:22:47;;;;;;;28.67;17.40;;;;;;;;;;5103382;28;20055;-67
2022/03/23 10:25:14;;;;;;;21.75;14.65;;;;;;;;;;5116557;28;20052;-67
2022/03/23 10:27:40;;;;;;;21.05;15.43;;;;;;;;;;5110534;28;20048;-66
2022/03/23 10:30:06;;;;;;;20.52;15.98;;;;;;;;;;5106881;28;20058;-67
2022/03/23 10:32:36;;;;;;;23.38;16.45;;;;;;;;;;5107332;28;20048;-66
2022/03/23 10:35:04;;;;;;;22.30;14.18;;;;;;;;;;5107778;28;20040;-66
2022/03/23 10:37:34;;;;;;;19.08;13.80;;;;;;;;;;5105842;28;20109;-66
2022/03/23 10:40:01;;;;;;;21.00;14.07;;;;;;;;;;5107517;28;20036;-66
2022/03/23 10:42:29;;;;;;;17.92;13.32;;;;;;;;;;5108901;28;20043;-66
2022/03/23 10:45:07;;;;;;;18.67;13.30;;;;;;;;;;5107647;28;20044;-66
2022/03/23 10:47:33;;;;;;;18.58;13.70;;;;;;;;;;5105762;28;20096;-67
2022/03/23 10:50:07;;;;;;;13.27;9.77;;;;;;;;;;5107375;28;20525;-66
2022/03/23 10:52:33;;;;;;;20.77;13.65;;;;;;;;;;5106400;28;20505;-66
2022/03/23 10:55:00;;;;;;;21.85;13.68;;;;;;;;;;5107537;28;20040;-67
2022/03/23 10:57:56;;;;;;;15.85;12.85;;;;;;;;;;5094129;28;20061;-67
2022/03/23 11:00:39;;;;;;;20.55;12.82;;;;;;;;;;5090206;28;20059;-66
2022/03/23 11:03:06;;;;;;;15.77;12.55;;;;;;;;;;5087186;28;20070;-67
2022/03/23 11:05:42;;;;;;;15.88;11.77;;;;;;;;;;5087524;28;20055;-67
2022/03/23 11:08:15;;;;;;;14.10;10.07;;;;;;;;;;5097056;28;20051;-67
2022/03/23 11:16:30;;;;;;;15.30;9.82;;;;;;;;;;5100580;28;20595;-67
2022/03/23 11:19:20;;;;;;;18.95;10.77;;;;;;;;;;5105391;28;20048;-67
2022/03/23 11:21:59;;;;;;;20.17;10.93;;;;;;;;;;5085391;28;20049;-67
2022/03/23 11:24:26;;;;;;;21.50;11.27;;;;;;;;;;5095168;28;20094;-67
2022/03/23 11:26:54;;;;;;;26.48;12.10;;;;;;;;;;5106716;28;20051;-66
2022/03/23 11:29:21;;;;;;;19.00;11.95;;;;;;;;;;5106704;28;20047;-67
2022/03/23 11:31:47;;;;;;;23.65;12.18;;;;;;;;;;5098124;28;20073;-66
2022/03/23 11:34:15;;;;;;;14.50;11.13;;;;;;;;;;5092351;28;20048;-68
2022/03/23 11:36:42;;;;;;;18.77;11.00;;;;;;;;;;5088095;28;20095;-66
2022/03/23 11:39:08;;;;;;;19.23;11.68;;;;;;;;;;5116525;28;20047;-68
2022/03/23 11:41:34;;;;;;;19.92;11.48;;;;;;;;;;5126132;28;20031;-68
2022/03/23 11:44:00;;;;;;;18.73;10.57;;;;;;;;;;5118037;28;20104;-67
2022/03/23 11:46:26;;;;;;;18.80;10.20;;;;;;;;;;5085893;28;20044;-66
2022/03/23 11:49:13;;;;;;;17.92;10.07;;;;;;;;;;5089397;28;20480;-67
2022/03/23 11:51:42;;;;;;;21.17;10.85;;;;;;;;;;5104754;28;20048;-67
2022/03/23 11:54:11;;;;;;;21.13;10.73;;;;;;;;;;5097138;28;20059;-66
2022/03/23 11:56:47;;;;;;;29.17;12.18;;;;;;;;;;5085508;28;20204;-66
2022/03/23 11:59:22;;;;;;;20.95;10.52;;;;;;;;;;5096893;28;20051;-66
2022/03/23 12:01:50;;;;;;;18.75;9.43;;;;;;;;;;5102417;28;20048;-67
2022/03/23 12:04:21;;;;;;;17.70;9.43;;;;;;;;;;5091408;28;20575;-66
2022/03/23 12:06:56;;;;;;;17.67;8.45;;;;;;;;;;5084894;28;20110;-66
2022/03/23 12:09:35;;;;;;;17.45;9.25;;;;;;;;;;5085633;28;20048;-67
2022/03/23 12:12:21;;;;;;;15.95;9.18;;;;;;;;;;5085186;28;20051;-67
2022/03/23 12:14:48;;;;;;;17.00;9.82;;;;;;;;;;5093781;28;20070;-66
2022/03/23 12:17:18;;;;;;;18.52;10.60;;;;;;;;;;5093102;28;20144;-67
2022/03/23 12:19:50;;;;;;;15.88;10.00;;;;;;;;;;5083844;28;20101;-67
2022/03/23 12:22:19;;;;;;;22.95;8.52;;;;;;;;;;5084659;28;20052;-67
2022/03/23 12:24:51;;;;;;;24.23;9.02;;;;;;;;;;5097936;28;20040;-67
2022/03/23 12:27:21;;;;;;;30.10;10.45;;;;;;;;;;5104228;28;20055;-67
2022/03/23 12:29:48;;;;;;;18.70;9.50;;;;;;;;;;5105516;28;20046;-66
2022/03/23 12:32:15;;;;;;;24.63;9.60;;;;;;;;;;5096735;28;20049;-68
2022/03/23 12:34:42;;;;;;;20.10;9.18;;;;;;;;;;5085168;28;20498;-66
2022/03/23 12:37:09;;;;;;;14.82;9.20;;;;;;;;;;5084520;28;20420;-67
2022/03/23 12:39:37;;;;;;;20.95;7.25;;;;;;;;;;5085529;28;20048;-67
2022/03/23 12:42:13;;;;;;;19.40;8.48;;;;;;;;;;5105386;28;20085;-66
2022/03/23 12:45:04;;;;;;;23.52;7.75;;;;;;;;;;5105340;28;20044;-66
2022/03/23 12:47:31;;;;;;;15.35;8.05;;;;;;;;;;5114544;28;20096;-67
2022/03/23 12:58:24;;;;;;;19.52;9.18;;;;;;;;;;5104892;28;20074;-67
2022/03/23 13:00:51;;;;;;;22.25;9.02;;;;;;;;;;5095253;28;20048;-66
2022/03/23 13:03:22;;;;;;;16.15;7.43;;;;;;;;;;5099610;28;20115;-66
2022/03/23 13:05:58;;;;;;;16.90;7.32;;;;;;;;;;5094416;28;20045;-67
2022/03/23 13:08:30;;;;;;;20.55;8.30;;;;;;;;;;5084439;28;20567;-67
2022/03/23 13:10:59;;;;;;;20.25;8.18;;;;;;;;;;5083964;28;20053;-68
2022/03/23 13:13:37;;;;;;;20.77;8.05;;;;;;;;;;5099862;28;20071;-68
2022/03/23 13:16:14;;;;;;;23.05;8.15;;;;;;;;;;5084382;28;20045;-67
2022/03/23 13:18:40;;;;;;;16.10;8.10;;;;;;;;;;5100349;28;20069;-67
2022/03/23 13:21:11;;;;;;;17.73;8.05;;;;;;;;;;5104070;28;20067;-67
2022/03/23 13:23:40;;;;;;;23.80;7.05;;;;;;;;;;5087590;28;20055;-67
2022/03/23 13:26:09;;;;;;;15.27;7.70;;;;;;;;;;5087182;28;20091;-67
2022/03/23 13:28:41;;;;;;;19.88;8.20;;;;;;;;;;5083692;28;20040;-67
2022/03/23 13:31:08;;;;;;;17.13;7.28;;;;;;;;;;5084000;28;20047;-67
2022/03/23 13:33:35;;;;;;;13.68;7.47;;;;;;;;;;5097775;28;20036;-68
2022/03/23 13:36:02;;;;;;;18.95;8.35;;;;;;;;;;5103447;28;20054;-68
2022/03/23 13:38:35;;;;;;;18.20;7.32;;;;;;;;;;5103967;28;20036;-67
2022/03/23 13:43:51;;;;;;;23.77;9.30;;;;;;;;;;5098920;28;20114;-68
2022/03/23 13:46:17;;;;;;;21.17;8.30;;;;;;;;;;5090074;28;20396;-67
2022/03/23 13:48:43;;;;;;;19.30;7.90;;;;;;;;;;5089917;28;20044;-68
2022/03/23 13:51:09;;;;;;;22.83;7.85;;;;;;;;;;5083033;28;20397;-67
2022/03/23 13:53:36;;;;;;;17.98;6.82;;;;;;;;;;5090169;28;20035;-66
2022/03/23 13:56:02;;;;;;;20.27;7.57;;;;;;;;;;5103548;28;20040;-67
2022/03/23 13:58:28;;;;;;;18.58;7.97;;;;;;;;;;5114567;28;20050;-67
2022/03/23 14:00:56;;;;;;;17.65;8.32;;;;;;;;;;5124165;28;20097;-67
2022/03/23 14:03:32;;;;;;;17.52;8.68;;;;;;;;;;5103107;28;20086;-67
2022/03/23 14:06:05;;;;;;;15.90;7.55;;;;;;;;;;5107547;28;20116;-68
2022/03/23 14:08:34;;;;;;;20.38;8.13;;;;;;;;;;5091989;28;20036;-67
2022/03/23 14:11:00;;;;;;;27.30;9.10;;;;;;;;;;5087470;28;20123;-68
2022/03/23 14:13:26;;;;;;;21.23;8.70;;;;;;;;;;5114851;28;20051;-67
2022/03/23 14:15:54;;;;;;;20.33;7.70;;;;;;;;;;5128129;28;20036;-67
2022/03/23 14:18:22;;;;;;;16.88;7.50;;;;;;;;;;5108994;28;20037;-68
2022/03/23 14:20:53;;;;;;;17.30;8.10;;;;;;;;;;5107964;28;20048;-67
2022/03/23 14:23:29;;;;;;;17.23;8.43;;;;;;;;;;5107732;28;20410;-67
2022/03/23 14:25:56;;;;;;;17.88;6.78;;;;;;;;;;5106188;28;20403;-67
2022/03/23 14:28:25;;;;;;;11.40;5.80;;;;;;;;;;5106857;28;20152;-68
2022/03/23 14:31:01;;;;;;;20.00;7.65;;;;;;;;;;5107649;28;20488;-69
2022/03/23 14:33:28;;;;;;;24.13;6.85;;;;;;;;;;5107031;28;20068;-67
2022/03/23 14:35:55;;;;;;;;;;;;;;;;;;5108653;28;20130;-67
2022/03/23 14:38:25;;;;;;;15.00;6.77;;;;;;;;;;5127859;28;19927;-67
2022/03/23 14:41:00;;;;;;;19.60;6.80;;;;;;;;;;5107952;28;20100;-67
2022/03/23 14:43:33;;;;;;;14.50;7.40;;;;;;;;;;5115164;28;20056;-67
2022/03/23 14:46:21;;;;;;;19.48;8.45;;;;;;;;;;5087107;28;20182;-67
2022/03/23 14:48:59;;;;;;;18.00;7.20;;;;;;;;;;5087362;28;20424;-69
2022/03/23 14:51:25;;;;;;;17.15;6.63;;;;;;;;;;5101516;28;20044;-67
2022/03/23 14:53:52;;;;;;;15.45;5.82;;;;;;;;;;5098077;28;20063;-67
2022/03/23 14:56:19;;;;;;;16.17;6.10;;;;;;;;;;5091051;28;20048;-67